This is the latest recevied weather packets stored in our database for station/object K6POO-1. If no packets are shown the sender has not sent any weather packets the latest 10 day(s).
| Time | Temp. | Humidity | Pressure | Rain* | Wind** | Luminosity | Snow |
|---|---|---|---|---|---|---|---|
| 1777596341 | 17.78° C | 59% | 1013.3 hPa | 0 mm | - | 207 W/m² | - |
| 1777596039 | 18.33° C | 56% | 1013.6 hPa | 0 mm | - | 225 W/m² | - |
| 1777595739 | 18.89° C | 55% | 1013.5 hPa | 0 mm | - | 243 W/m² | - |
| 1777595435 | 18.33° C | 59% | 1013.3 hPa | 0 mm | - | 260 W/m² | - |
| 1777595131 | 18.89° C | 55% | 1013.3 hPa | 0 mm | - | 280 W/m² | - |
| 1777594827 | 18.33° C | 58% | 1013.5 hPa | 0 mm | - | 302 W/m² | - |
| 1777594524 | 18.33° C | 59% | 1013.4 hPa | 0 mm | - | 324 W/m² | - |
| 1777594220 | 18.89° C | 57% | 1013.3 hPa | 0 mm | - | 344 W/m² | - |
| 1777593916 | 20° C | 55% | 1013.5 hPa | 0 mm | - | 363 W/m² | - |
| 1777593613 | 19.44° C | 56% | 1013.4 hPa | 0 mm | - | 382 W/m² | - |
| 1777593308 | 19.44° C | 55% | 1013.3 hPa | 0 mm | - | 405 W/m² | - |
| 1777593003 | 19.44° C | 56% | 1013.3 hPa | 0 mm | - | 423 W/m² | - |
| 1777592697 | 19.44° C | 58% | 1013.6 hPa | 0 mm | - | 442 W/m² | - |
| 1777592393 | 19.44° C | 55% | 1013.3 hPa | 0 mm | - | 462 W/m² | - |
| 1777592088 | 20° C | 52% | 1013.5 hPa | 0 mm | - | 481 W/m² | - |
| 1777591786 | 20° C | 52% | 1013.3 hPa | 0 mm | - | 504 W/m² | - |
| 1777591482 | 20° C | 53% | 1013.6 hPa | 0 mm | - | 520 W/m² | - |
| 1777591179 | 20° C | 54% | 1013.5 hPa | 0 mm | - | 541 W/m² | - |
| 1777590878 | 20° C | 54% | 1013.6 hPa | 0 mm | - | 557 W/m² | - |
| 1777590576 | 18.89° C | 57% | 1013.4 hPa | 0 mm | - | 575 W/m² | - |
| 1777590272 | 18.89° C | 58% | 1013.6 hPa | 0 mm | - | 594 W/m² | - |
| 1777589969 | 18.33° C | 60% | 1013.7 hPa | 0 mm | - | 612 W/m² | - |
| 1777589666 | 18.89° C | 60% | 1013.5 hPa | 0 mm | - | 629 W/m² | - |
| 1777589363 | 18.33° C | 60% | 1013.6 hPa | 0 mm | - | 646 W/m² | - |
| 1777589060 | 19.44° C | 56% | 1013.7 hPa | 0 mm | - | 662 W/m² | - |
* Rain latest hour (hover to see other rain measurements)
** Current wind speed in m/s (hover to see current wind gust speed)